Wetterdaten: Mittwoch, 25.11.2015
Datum Zeit Auen-Temp. Temp gefhlt Luftfeuchte Luftdruck Regen Wind Richtung Richtung Taupunkt Windben
25.11.2015 00:00 -2,9 C -3,2 C 80 % 1019,3 hPa 0,0 mm 0,5 km/h (0 Bft) W 270 -5,9 C 8,3 km/h (2 Bft)
25.11.2015 00:05 -2,7 C -3,1 C 84 % 1019,3 hPa 0,0 mm 0,5 km/h (0 Bft) S 180 -5,0 C 0,0 km/h (0 Bft)
25.11.2015 00:10 -2,5 C -2,9 C 83 % 1019,3 hPa 0,0 mm 1,0 km/h (0 Bft) O-NO 67 -5,0 C 0,0 km/h (0 Bft)
25.11.2015 00:15 -2,6 C -3,0 C 83 % 1018,8 hPa 0,0 mm 0,5 km/h (0 Bft) NO 45 -5,1 C 0,0 km/h (0 Bft)
25.11.2015 00:20 -2,6 C -3,0 C 83 % 1018,8 hPa 0,0 mm 0,3 km/h (0 Bft) W 270 -5,1 C 0,0 km/h (0 Bft)
25.11.2015 00:25 -2,4 C -2,8 C 82 % 1018,8 hPa 0,0 mm 1,0 km/h (0 Bft) S-SO 157 -5,0 C 3,1 km/h (1 Bft)
25.11.2015 00:30 -2,3 C -2,8 C 82 % 1018,8 hPa 0,0 mm 0,8 km/h (0 Bft) O-NO 67 -4,9 C 12,2 km/h (2 Bft)
25.11.2015 00:35 -2,4 C -2,8 C 82 % 1018,5 hPa 0,0 mm 0,0 km/h (0 Bft) O-NO 67 -5,0 C 0,0 km/h (0 Bft)
25.11.2015 00:40 -2,3 C -2,7 C 81 % 1018,5 hPa 0,0 mm 0,0 km/h (0 Bft) SW 225 -5,1 C 0,0 km/h (0 Bft)
25.11.2015 00:45 -2,2 C -2,6 C 79 % 1018,5 hPa 0,0 mm 0,0 km/h (0 Bft) S 180 -5,3 C 0,0 km/h (0 Bft)
25.11.2015 00:50 -2,3 C -2,7 C 81 % 1018,5 hPa 0,0 mm 0,0 km/h (0 Bft) N-NW 337 -5,1 C 0,0 km/h (0 Bft)
25.11.2015 00:55 -2,2 C -2,6 C 79 % 1018,1 hPa 0,0 mm 0,0 km/h (0 Bft) SO 135 -5,3 C 0,0 km/h (0 Bft)
25.11.2015 01:00 -2,2 C -2,5 C 78 % 1018,1 hPa 0,0 mm 0,0 km/h (0 Bft) O-NO 67 -5,5 C 0,0 km/h (0 Bft)
25.11.2015 01:05 -2,0 C -2,5 C 79 % 1018,1 hPa 0,0 mm 0,0 km/h (0 Bft) O-NO 67 -5,1 C 0,0 km/h (0 Bft)
25.11.2015 01:10 -2,2 C -2,6 C 79 % 1018,1 hPa 0,0 mm 0,0 km/h (0 Bft) O-NO 67 -5,3 C 0,0 km/h (0 Bft)
25.11.2015 01:15 -2,2 C -2,6 C 79 % 1017,8 hPa 0,0 mm 0,0 km/h (0 Bft) O-NO 67 -5,3 C 0,0 km/h (0 Bft)
25.11.2015 01:20 -2,3 C -2,7 C 79 % 1017,8 hPa 0,0 mm 1,0 km/h (0 Bft) NW 315 -5,4 C 0,0 km/h (0 Bft)
25.11.2015 01:25 -2,2 C -2,6 C 79 % 1017,8 hPa 0,0 mm 1,0 km/h (0 Bft) O-NO 67 -5,3 C 0,0 km/h (0 Bft)
25.11.2015 01:30 -2,2 C -2,6 C 79 % 1017,8 hPa 0,0 mm 0,0 km/h (0 Bft) O-NO 67 -5,3 C 0,0 km/h (0 Bft)
25.11.2015 01:35 -2,0 C -2,4 C 79 % 1017,5 hPa 0,0 mm 0,0 km/h (0 Bft) O-SO 112 -5,1 C 0,0 km/h (0 Bft)
25.11.2015 01:40 -1,9 C -2,3 C 79 % 1017,5 hPa 0,0 mm 0,0 km/h (0 Bft) W 270 -5,0 C 0,0 km/h (0 Bft)
25.11.2015 01:45 -1,9 C -2,3 C 77 % 1017,5 hPa 0,0 mm 0,0 km/h (0 Bft) W 270 -5,4 C 0,0 km/h (0 Bft)
25.11.2015 01:50 -1,8 C -2,2 C 77 % 1017,5 hPa 0,0 mm 0,0 km/h (0 Bft) O-NO 67 -5,3 C 3,6 km/h (1 Bft)
25.11.2015 01:55 -1,8 C -2,1 C 77 % 1017,1 hPa 0,0 mm 0,8 km/h (0 Bft) O-NO 67 -5,3 C 4,4 km/h (1 Bft)
25.11.2015 02:00 -1,8 C -2,2 C 77 % 1017,1 hPa 0,0 mm 0,8 km/h (0 Bft) O-NO 67 -5,3 C 0,0 km/h (0 Bft)
25.11.2015 02:05 -1,9 C -2,3 C 77 % 1017,1 hPa 0,0 mm 0,5 km/h (0 Bft) O-NO 67 -5,4 C 0,0 km/h (0 Bft)
25.11.2015 02:10 -1,9 C -2,3 C 78 % 1017,1 hPa 0,0 mm 0,0 km/h (0 Bft) O-NO 67 -5,2 C 0,0 km/h (0 Bft)
25.11.2015 02:15 -1,9 C -2,3 C 77 % 1016,9 hPa 0,0 mm 0,0 km/h (0 Bft) O-NO 67 -5,4 C 0,0 km/h (0 Bft)
25.11.2015 02:20 -2,0 C -2,3 C 77 % 1016,9 hPa 0,0 mm 0,0 km/h (0 Bft) N-NW 337 -5,5 C 0,0 km/h (0 Bft)
25.11.2015 02:25 -2,0 C -2,3 C 77 % 1016,9 hPa 0,0 mm 0,0 km/h (0 Bft) N-NW 337 -5,5 C 0,0 km/h (0 Bft)
25.11.2015 02:30 -2,0 C -2,3 C 78 % 1016,9 hPa 0,0 mm 0,0 km/h (0 Bft) N-NW 337 -5,3 C 0,0 km/h (0 Bft)
25.11.2015 02:35 -1,9 C -2,3 C 78 % 1016,6 hPa 0,0 mm 0,0 km/h (0 Bft) NO 45 -5,2 C 0,0 km/h (0 Bft)
25.11.2015 02:40 -2,0 C -2,3 C 78 % 1016,6 hPa 0,0 mm 0,0 km/h (0 Bft) NO 45 -5,3 C 0,0 km/h (0 Bft)
25.11.2015 02:45 -1,9 C -2,2 C 78 % 1016,6 hPa 0,0 mm 0,0 km/h (0 Bft) NO 45 -5,2 C 0,0 km/h (0 Bft)
25.11.2015 02:50 -1,8 C -2,1 C 77 % 1016,6 hPa 0,0 mm 0,3 km/h (0 Bft) O-SO 112 -5,3 C 0,0 km/h (0 Bft)
25.11.2015 02:55 -1,6 C -2,0 C 77 % 1016,5 hPa 0,0 mm 0,3 km/h (0 Bft) O-SO 112 -5,1 C 0,0 km/h (0 Bft)
25.11.2015 03:00 -1,8 C -2,1 C 77 % 1016,5 hPa 0,0 mm 0,0 km/h (0 Bft) O-SO 112 -5,3 C 0,0 km/h (0 Bft)
25.11.2015 03:05 -1,8 C -2,1 C 77 % 1016,5 hPa 0,0 mm 0,0 km/h (0 Bft) O-SO 112 -5,3 C 0,0 km/h (0 Bft)
25.11.2015 03:10 -1,8 C -2,1 C 77 % 1016,5 hPa 0,0 mm 0,3 km/h (0 Bft) SW 225 -5,3 C 0,0 km/h (0 Bft)
25.11.2015 03:15 -1,9 C -2,2 C 77 % 1016,2 hPa 0,0 mm 0,3 km/h (0 Bft) W 270 -5,4 C 0,0 km/h (0 Bft)
25.11.2015 03:20 -1,9 C -2,2 C 77 % 1016,2 hPa 0,0 mm 0,0 km/h (0 Bft) W 270 -5,4 C 0,0 km/h (0 Bft)
25.11.2015 03:25 -1,8 C -2,1 C 77 % 1016,2 hPa 0,0 mm 0,0 km/h (0 Bft) S 180 -5,3 C 0,0 km/h (0 Bft)
25.11.2015 03:30 -1,8 C -2,1 C 78 % 1016,2 hPa 0,0 mm 1,0 km/h (0 Bft) W 270 -5,1 C 3,4 km/h (1 Bft)
25.11.2015 03:35 -1,8 C -2,1 C 78 % 1015,9 hPa 0,0 mm 1,6 km/h (1 Bft) NW 315 -5,1 C 0,0 km/h (0 Bft)
25.11.2015 03:40 -1,8 C -2,1 C 78 % 1015,9 hPa 0,0 mm 0,8 km/h (0 Bft) O 90 -5,1 C 0,0 km/h (0 Bft)
25.11.2015 03:45 -1,9 C -2,2 C 78 % 1015,9 hPa 0,0 mm 0,0 km/h (0 Bft) O 90 -5,2 C 0,0 km/h (0 Bft)
25.11.2015 03:50 -2,0 C -2,3 C 78 % 1015,9 hPa 0,0 mm 0,0 km/h (0 Bft) N-NO 22 -5,3 C 0,0 km/h (0 Bft)
25.11.2015 03:55 -2,0 C -2,3 C 78 % 1015,5 hPa 0,0 mm 0,0 km/h (0 Bft) N-NO 22 -5,3 C 0,0 km/h (0 Bft)
25.11.2015 04:00 -2,1 C -2,4 C 78 % 1015,5 hPa 0,0 mm 0,0 km/h (0 Bft) N-NO 22 -5,4 C 0,0 km/h (0 Bft)
25.11.2015 04:05 -2,1 C -2,4 C 78 % 1015,5 hPa 0,0 mm 0,0 km/h (0 Bft) N-NO 22 -5,4 C 0,0 km/h (0 Bft)
25.11.2015 04:10 -2,0 C -2,3 C 79 % 1015,5 hPa 0,0 mm 0,0 km/h (0 Bft) W-SW 247 -5,1 C 2,6 km/h (1 Bft)
25.11.2015 04:15 -2,0 C -2,3 C 79 % 1015,8 hPa 0,0 mm 0,3 km/h (0 Bft) SW 225 -5,1 C 0,0 km/h (0 Bft)
25.11.2015 04:20 -2,0 C -2,3 C 79 % 1015,8 hPa 0,0 mm 0,3 km/h (0 Bft) S 180 -5,1 C 0,0 km/h (0 Bft)
25.11.2015 04:25 -2,0 C -2,3 C 79 % 1015,8 hPa 0,0 mm 0,5 km/h (0 Bft) W 270 -5,1 C 5,2 km/h (1 Bft)
25.11.2015 04:30 -1,9 C -2,2 C 79 % 1015,8 hPa 0,0 mm 2,6 km/h (1 Bft) SW 225 -5,0 C 10,9 km/h (2 Bft)
25.11.2015 04:35 -1,7 C -2,0 C 79 % 1015,8 hPa 0,0 mm 3,4 km/h (1 Bft) W-SW 247 -4,8 C 8,0 km/h (2 Bft)
25.11.2015 04:40 -1,4 C -1,9 C 79 % 1015,8 hPa 0,0 mm 4,4 km/h (1 Bft) S 180 -4,6 C 12,7 km/h (3 Bft)
25.11.2015 04:45 -1,4 C -1,7 C 79 % 1015,8 hPa 0,0 mm 3,1 km/h (1 Bft) S 180 -4,6 C 0,0 km/h (0 Bft)
25.11.2015 04:50 -1,4 C -1,7 C 79 % 1015,8 hPa 0,0 mm 1,0 km/h (0 Bft) W-SW 247 -4,6 C 5,7 km/h (1 Bft)
25.11.2015 04:55 -1,3 C -1,6 C 79 % 1015,6 hPa 0,0 mm 1,3 km/h (1 Bft) S-SO 157 -4,5 C 0,0 km/h (0 Bft)
25.11.2015 05:00 -1,4 C -1,7 C 79 % 1015,6 hPa 0,0 mm 2,1 km/h (1 Bft) SW 225 -4,6 C 3,4 km/h (1 Bft)
25.11.2015 05:05 -1,4 C -1,7 C 79 % 1015,6 hPa 0,0 mm 2,1 km/h (1 Bft) S-SO 157 -4,6 C 0,0 km/h (0 Bft)
25.11.2015 05:10 -1,5 C -1,7 C 79 % 1015,6 hPa 0,0 mm 1,0 km/h (0 Bft) S-SW 202 -4,7 C 0,0 km/h (0 Bft)
25.11.2015 05:15 -1,3 C -1,6 C 79 % 1015,6 hPa 0,0 mm 1,6 km/h (1 Bft) S-SO 157 -4,5 C 8,0 km/h (2 Bft)
25.11.2015 05:20 -1,4 C -1,6 C 79 % 1015,6 hPa 0,0 mm 3,4 km/h (1 Bft) S-SW 202 -4,6 C 0,0 km/h (0 Bft)
25.11.2015 05:25 -1,4 C -1,7 C 79 % 1015,6 hPa 0,0 mm 2,3 km/h (1 Bft) SO 135 -4,6 C 0,0 km/h (0 Bft)
25.11.2015 05:30 -1,4 C -1,7 C 79 % 1015,6 hPa 0,0 mm 1,0 km/h (0 Bft) SW 225 -4,6 C 8,0 km/h (2 Bft)
25.11.2015 05:35 -1,3 C -1,6 C 80 % 1015,5 hPa 0,0 mm 1,8 km/h (1 Bft) O-SO 112 -4,3 C 0,0 km/h (0 Bft)
25.11.2015 05:40 -1,2 C -1,5 C 80 % 1015,5 hPa 0,0 mm 3,1 km/h (1 Bft) O 90 -4,2 C 3,1 km/h (1 Bft)
25.11.2015 05:42 -1,3 C -1,6 C 80 % 1015,5 hPa 0,0 mm 2,3 km/h (1 Bft) S 180 -4,3 C 3,9 km/h (1 Bft)
25.11.2015 05:47 -1,3 C -1,6 C 80 % 1015,5 hPa 0,0 mm 2,3 km/h (1 Bft) S 180 -4,3 C 3,9 km/h (1 Bft)
25.11.2015 05:50 -1,2 C -1,5 C 80 % 1015,5 hPa 0,0 mm 1,3 km/h (1 Bft) SO 135 -4,2 C 0,0 km/h (0 Bft)
25.11.2015 05:55 -1,2 C -1,5 C 79 % 1015,3 hPa 0,0 mm 0,8 km/h (0 Bft) SO 135 -4,4 C 0,0 km/h (0 Bft)
25.11.2015 06:00 -1,3 C -1,6 C 79 % 1015,3 hPa 0,0 mm 0,5 km/h (0 Bft) NW 315 -4,5 C 0,0 km/h (0 Bft)
25.11.2015 06:05 -1,4 C -1,7 C 79 % 1015,3 hPa 0,0 mm 0,5 km/h (0 Bft) NW 315 -4,6 C 0,0 km/h (0 Bft)
25.11.2015 06:10 -1,4 C -1,7 C 79 % 1015,3 hPa 0,0 mm 0,0 km/h (0 Bft) N-NO 22 -4,6 C 0,0 km/h (0 Bft)
25.11.2015 06:15 -1,5 C -1,8 C 79 % 1015,5 hPa 0,0 mm 0,0 km/h (0 Bft) N-NO 22 -4,7 C 0,0 km/h (0 Bft)
25.11.2015 06:20 -1,4 C -1,7 C 79 % 1015,5 hPa 0,0 mm 0,0 km/h (0 Bft) N 360 -4,6 C 0,0 km/h (0 Bft)
25.11.2015 06:25 -1,5 C -1,8 C 79 % 1015,5 hPa 0,0 mm 0,3 km/h (0 Bft) N-NW 337 -4,7 C 0,0 km/h (0 Bft)
25.11.2015 06:30 -1,5 C -1,7 C 78 % 1015,5 hPa 0,0 mm 1,3 km/h (1 Bft) SO 135 -4,8 C 4,4 km/h (1 Bft)
25.11.2015 06:35 -1,4 C -1,7 C 80 % 1015,1 hPa 0,0 mm 1,3 km/h (1 Bft) N-NW 337 -4,4 C 0,0 km/h (0 Bft)
25.11.2015 06:40 -1,2 C -1,5 C 80 % 1015,1 hPa 0,0 mm 2,3 km/h (1 Bft) O 90 -4,2 C 0,0 km/h (0 Bft)
25.11.2015 06:45 -1,3 C -1,6 C 80 % 1015,1 hPa 0,0 mm 1,6 km/h (1 Bft) O 90 -4,3 C 0,0 km/h (0 Bft)
25.11.2015 06:50 -1,3 C -1,6 C 80 % 1015,1 hPa 0,0 mm 0,0 km/h (0 Bft) O-SO 112 -4,3 C 0,0 km/h (0 Bft)
25.11.2015 06:55 -1,4 C -1,7 C 80 % 1015,2 hPa 0,0 mm 0,0 km/h (0 Bft) O 90 -4,4 C 0,0 km/h (0 Bft)
25.11.2015 07:00 -1,4 C -1,7 C 80 % 1015,2 hPa 0,0 mm 0,0 km/h (0 Bft) O 90 -4,4 C 0,0 km/h (0 Bft)
25.11.2015 07:05 -1,4 C -1,8 C 80 % 1015,2 hPa 0,0 mm 0,0 km/h (0 Bft) O 90 -4,4 C 0,0 km/h (0 Bft)
25.11.2015 07:10 -1,6 C -2,0 C 80 % 1015,2 hPa 0,0 mm 0,0 km/h (0 Bft) SO 135 -4,6 C 0,0 km/h (0 Bft)
25.11.2015 07:15 -1,7 C -2,1 C 80 % 1015,1 hPa 0,0 mm 0,0 km/h (0 Bft) SO 135 -4,7 C 0,0 km/h (0 Bft)
25.11.2015 07:20 -1,6 C -2,0 C 80 % 1015,1 hPa 0,0 mm 0,0 km/h (0 Bft) S-SO 157 -4,6 C 0,0 km/h (0 Bft)
25.11.2015 07:25 -1,6 C -2,0 C 81 % 1015,1 hPa 0,0 mm 0,0 km/h (0 Bft) SO 135 -4,4 C 0,0 km/h (0 Bft)
25.11.2015 07:30 -1,7 C -2,1 C 81 % 1015,1 hPa 0,0 mm 0,0 km/h (0 Bft) S-SO 157 -4,5 C 0,0 km/h (0 Bft)
25.11.2015 07:35 -1,8 C -2,1 C 81 % 1015,0 hPa 0,0 mm 0,0 km/h (0 Bft) S-SO 157 -4,6 C 0,0 km/h (0 Bft)
25.11.2015 07:40 -1,9 C -2,2 C 81 % 1015,0 hPa 0,0 mm 0,0 km/h (0 Bft) S 180 -4,7 C 0,0 km/h (0 Bft)
25.11.2015 07:45 -1,9 C -2,2 C 81 % 1015,0 hPa 0,0 mm 0,0 km/h (0 Bft) S-SO 157 -4,7 C 0,0 km/h (0 Bft)
25.11.2015 07:50 -2,0 C -2,3 C 81 % 1015,0 hPa 0,0 mm 0,0 km/h (0 Bft) S-SO 157 -4,8 C 0,0 km/h (0 Bft)
25.11.2015 07:55 -1,9 C -2,2 C 81 % 1015,0 hPa 0,0 mm 0,0 km/h (0 Bft) O-NO 67 -4,7 C 0,0 km/h (0 Bft)
25.11.2015 08:00 -1,4 C -1,5 C 79 % 1015,0 hPa 0,0 mm 2,8 km/h (1 Bft) S-SO 157 -4,6 C 9,3 km/h (2 Bft)
25.11.2015 08:05 -1,1 C -1,5 C 79 % 1015,0 hPa 0,0 mm 5,2 km/h (1 Bft) S 180 -4,3 C 4,9 km/h (1 Bft)
25.11.2015 08:10 -1,0 C -1,2 C 79 % 1015,0 hPa 0,0 mm 5,4 km/h (1 Bft) S 180 -4,2 C 6,7 km/h (2 Bft)
25.11.2015 08:15 -0,8 C -0,8 C 80 % 1014,8 hPa 0,0 mm 4,1 km/h (1 Bft) SW 225 -3,8 C 6,2 km/h (2 Bft)
25.11.2015 08:20 -0,7 C -0,5 C 80 % 1014,8 hPa 0,0 mm 2,8 km/h (1 Bft) S-SO 157 -3,7 C 0,0 km/h (0 Bft)
25.11.2015 08:25 -0,7 C -0,4 C 79 % 1014,8 hPa 0,0 mm 1,8 km/h (1 Bft) S 180 -3,9 C 3,9 km/h (1 Bft)
25.11.2015 08:30 -0,7 C -0,2 C 79 % 1014,8 hPa 0,0 mm 1,0 km/h (0 Bft) S-SO 157 -3,9 C 0,0 km/h (0 Bft)
25.11.2015 08:35 -0,5 C 0,0 C 79 % 1014,9 hPa 0,0 mm 0,8 km/h (0 Bft) S-SO 157 -3,7 C 0,0 km/h (0 Bft)
25.11.2015 08:40 -0,3 C 0,1 C 79 % 1014,9 hPa 0,0 mm 0,0 km/h (0 Bft) S 180 -3,5 C 0,0 km/h (0 Bft)
25.11.2015 08:45 -0,1 C 0,4 C 79 % 1014,9 hPa 0,0 mm 0,3 km/h (0 Bft) SW 225 -3,3 C 5,2 km/h (1 Bft)
25.11.2015 08:50 0,0 C 0,4 C 79 % 1014,9 hPa 0,0 mm 1,8 km/h (1 Bft) S 180 -3,2 C 0,0 km/h (0 Bft)
25.11.2015 08:55 0,1 C 0,5 C 79 % 1015,0 hPa 0,0 mm 2,1 km/h (1 Bft) S-SO 157 -3,1 C 0,0 km/h (0 Bft)
25.11.2015 09:00 0,1 C 0,5 C 79 % 1015,0 hPa 0,0 mm 0,3 km/h (0 Bft) S 180 -3,1 C 0,0 km/h (0 Bft)
25.11.2015 09:05 0,2 C 0,7 C 79 % 1015,0 hPa 0,0 mm 1,6 km/h (1 Bft) SW 225 -3,0 C 6,0 km/h (2 Bft)
25.11.2015 09:10 0,3 C 0,8 C 79 % 1015,0 hPa 0,0 mm 2,3 km/h (1 Bft) S-SO 157 -2,9 C 0,0 km/h (0 Bft)
25.11.2015 09:15 0,3 C 0,8 C 79 % 1014,7 hPa 0,0 mm 2,3 km/h (1 Bft) S 180 -2,9 C 4,7 km/h (1 Bft)
25.11.2015 09:20 0,4 C 1,0 C 79 % 1014,7 hPa 0,0 mm 2,8 km/h (1 Bft) S 180 -2,8 C 2,8 km/h (1 Bft)
25.11.2015 09:25 0,4 C 1,1 C 79 % 1014,7 hPa 0,0 mm 2,1 km/h (1 Bft) W-SW 247 -2,8 C 0,0 km/h (0 Bft)
25.11.2015 09:30 0,6 C 1,3 C 79 % 1014,7 hPa 0,0 mm 0,3 km/h (0 Bft) S-SO 157 -2,6 C 0,0 km/h (0 Bft)
25.11.2015 09:35 0,6 C 1,5 C 79 % 1014,8 hPa 0,0 mm 0,0 km/h (0 Bft) S-SO 157 -2,6 C 0,0 km/h (0 Bft)
25.11.2015 09:40 1,0 C 2,0 C 79 % 1014,8 hPa 0,0 mm 0,0 km/h (0 Bft) S-SO 157 -2,2 C 0,0 km/h (0 Bft)
25.11.2015 09:45 1,2 C 2,4 C 79 % 1014,8 hPa 0,0 mm 0,0 km/h (0 Bft) S 180 -2,0 C 0,0 km/h (0 Bft)
25.11.2015 09:50 1,3 C 2,7 C 79 % 1014,8 hPa 0,0 mm 0,0 km/h (0 Bft) SW 225 -1,9 C 0,0 km/h (0 Bft)
25.11.2015 09:55 1,3 C 2,8 C 79 % 1014,5 hPa 0,0 mm 0,3 km/h (0 Bft) O 90 -1,9 C 0,0 km/h (0 Bft)
25.11.2015 10:00 1,2 C 2,7 C 79 % 1014,5 hPa 0,0 mm 0,3 km/h (0 Bft) N-NO 22 -2,0 C 0,0 km/h (0 Bft)
25.11.2015 10:05 1,2 C 2,7 C 79 % 1014,5 hPa 0,0 mm 0,0 km/h (0 Bft) N-NO 22 -2,0 C 0,0 km/h (0 Bft)
25.11.2015 10:10 1,4 C 3,0 C 79 % 1014,5 hPa 0,0 mm 0,0 km/h (0 Bft) O-NO 67 -1,8 C 0,0 km/h (0 Bft)
25.11.2015 10:15 1,4 C 3,1 C 78 % 1014,4 hPa 0,0 mm 0,0 km/h (0 Bft) O 90 -2,0 C 0,0 km/h (0 Bft)
25.11.2015 10:20 1,4 C 3,1 C 78 % 1014,4 hPa 0,0 mm 0,5 km/h (0 Bft) W-NW 292 -2,0 C 2,6 km/h (1 Bft)
25.11.2015 10:25 1,3 C 3,2 C 78 % 1014,4 hPa 0,0 mm 0,5 km/h (0 Bft) W 270 -2,1 C 0,0 km/h (0 Bft)
25.11.2015 10:30 1,5 C 3,7 C 78 % 1014,4 hPa 0,0 mm 0,3 km/h (0 Bft) W-NW 292 -1,9 C 0,0 km/h (0 Bft)
25.11.2015 10:35 1,8 C 3,9 C 78 % 1014,5 hPa 0,0 mm 0,0 km/h (0 Bft) W-NW 292 -1,6 C 0,0 km/h (0 Bft)
25.11.2015 10:40 2,0 C 4,2 C 78 % 1014,5 hPa 0,0 mm 0,0 km/h (0 Bft) W-NW 292 -1,4 C 0,0 km/h (0 Bft)
25.11.2015 10:45 2,1 C 4,6 C 78 % 1014,5 hPa 0,0 mm 0,0 km/h (0 Bft) W-NW 292 -1,3 C 0,0 km/h (0 Bft)
25.11.2015 10:50 2,0 C 5,0 C 77 % 1014,5 hPa 0,0 mm 0,0 km/h (0 Bft) W 270 -1,6 C 0,0 km/h (0 Bft)
25.11.2015 10:55 1,9 C 5,0 C 77 % 1014,3 hPa 0,0 mm 0,0 km/h (0 Bft) NW 315 -1,7 C 0,0 km/h (0 Bft)
25.11.2015 11:00 2,0 C 5,2 C 77 % 1014,3 hPa 0,0 mm 0,0 km/h (0 Bft) NW 315 -1,6 C 0,0 km/h (0 Bft)
25.11.2015 11:05 2,1 C 5,5 C 77 % 1014,3 hPa 0,0 mm 0,0 km/h (0 Bft) N-NO 22 -1,5 C 0,0 km/h (0 Bft)
25.11.2015 11:10 2,5 C 6,3 C 77 % 1014,3 hPa 0,0 mm 0,3 km/h (0 Bft) N-NW 337 -1,1 C 0,0 km/h (0 Bft)
25.11.2015 11:15 2,5 C 6,5 C 77 % 1014,1 hPa 0,0 mm 0,3 km/h (0 Bft) W 270 -1,1 C 0,0 km/h (0 Bft)
25.11.2015 11:20 2,8 C 6,4 C 76 % 1010,8 hPa 0,0 mm 0,0 km/h (0 Bft) S 180 -1,0 C 0,0 km/h (0 Bft)
25.11.2015 11:21 2,8 C 6,4 C 76 % 1010,8 hPa 0,0 mm 0,0 km/h (0 Bft) S 180 -1,0 C 0,0 km/h (0 Bft)
25.11.2015 11:25 2,8 C 6,2 C 76 % 1010,8 hPa 0,0 mm 0,5 km/h (0 Bft) W-SW 247 -1,0 C 0,0 km/h (0 Bft)
25.11.2015 11:30 2,9 C 5,8 C 76 % 1010,8 hPa 0,7 mm 0,5 km/h (0 Bft) W-NW 292 -0,9 C 0,0 km/h (0 Bft)
25.11.2015 11:35 2,9 C 5,8 C 76 % 1010,9 hPa 0,0 mm 0,0 km/h (0 Bft) W 270 -0,9 C 0,0 km/h (0 Bft)
25.11.2015 11:40 3,0 C 6,0 C 75 % 1010,9 hPa 0,0 mm 0,0 km/h (0 Bft) SW 225 -1,0 C 0,0 km/h (0 Bft)
25.11.2015 11:45 3,0 C 5,9 C 75 % 1010,9 hPa 0,0 mm 0,5 km/h (0 Bft) W 270 -1,0 C 2,8 km/h (1 Bft)
25.11.2015 11:50 3,0 C 5,7 C 75 % 1010,9 hPa 0,0 mm 0,8 km/h (0 Bft) SW 225 -1,0 C 0,0 km/h (0 Bft)
25.11.2015 11:55 2,9 C 5,8 C 76 % 1010,7 hPa 0,0 mm 1,3 km/h (1 Bft) W-SW 247 -0,9 C 6,0 km/h (2 Bft)
25.11.2015 12:00 2,8 C 5,5 C 76 % 1010,7 hPa 0,0 mm 3,9 km/h (1 Bft) W-SW 247 -1,0 C 4,9 km/h (1 Bft)
25.11.2015 12:05 2,8 C 5,3 C 76 % 1010,7 hPa 0,0 mm 4,9 km/h (1 Bft) W-SW 247 -1,0 C 3,6 km/h (1 Bft)
25.11.2015 12:10 2,8 C 5,3 C 77 % 1010,7 hPa 0,0 mm 3,6 km/h (1 Bft) W-SW 247 -0,8 C 5,7 km/h (1 Bft)
25.11.2015 12:15 2,8 C 5,2 C 77 % 1010,7 hPa 0,0 mm 3,6 km/h (1 Bft) W 270 -0,8 C 10,1 km/h (2 Bft)
25.11.2015 12:20 2,8 C 4,4 C 77 % 1010,7 hPa 0,7 mm 5,7 km/h (1 Bft) W-SW 247 -0,8 C 14,5 km/h (3 Bft)
25.11.2015 12:25 2,7 C 3,8 C 77 % 1010,7 hPa 0,0 mm 6,7 km/h (2 Bft) W 270 -0,9 C 19,9 km/h (4 Bft)
25.11.2015 12:30 2,7 C 3,3 C 77 % 1010,7 hPa 0,0 mm 8,3 km/h (2 Bft) SW 225 -0,9 C 7,8 km/h (2 Bft)
25.11.2015 12:35 2,5 C 3,3 C 77 % 1010,7 hPa 0,0 mm 8,3 km/h (2 Bft) W 270 -1,1 C 16,6 km/h (3 Bft)
25.11.2015 12:40 2,5 C 3,4 C 77 % 1010,7 hPa 0,0 mm 6,7 km/h (2 Bft) W 270 -1,1 C 8,5 km/h (2 Bft)
25.11.2015 12:45 2,5 C 3,3 C 77 % 1010,7 hPa 0,0 mm 7,5 km/h (2 Bft) W-SW 247 -1,1 C 14,2 km/h (3 Bft)
25.11.2015 12:50 2,5 C 3,3 C 77 % 1010,7 hPa 0,0 mm 8,3 km/h (2 Bft) W-SW 247 -1,1 C 10,9 km/h (2 Bft)
25.11.2015 12:55 2,5 C 3,3 C 77 % 1010,0 hPa 0,0 mm 8,5 km/h (2 Bft) NW 315 -1,1 C 11,9 km/h (2 Bft)
25.11.2015 13:00 2,5 C 3,3 C 77 % 1010,0 hPa 0,0 mm 8,5 km/h (2 Bft) W-SW 247 -1,1 C 22,3 km/h (4 Bft)
25.11.2015 13:05 2,4 C 3,1 C 77 % 1010,0 hPa 0,0 mm 9,3 km/h (2 Bft) W-NW 292 -1,2 C 20,2 km/h (4 Bft)
25.11.2015 13:10 2,4 C 3,1 C 77 % 1010,0 hPa 0,0 mm 8,5 km/h (2 Bft) NW 315 -1,2 C 5,2 km/h (1 Bft)
25.11.2015 13:15 2,4 C 3,1 C 77 % 1009,9 hPa 0,0 mm 8,5 km/h (2 Bft) W 270 -1,2 C 6,5 km/h (2 Bft)
25.11.2015 13:20 2,4 C 2,9 C 77 % 1009,9 hPa 0,0 mm 8,0 km/h (2 Bft) W-SW 247 -1,2 C 6,2 km/h (2 Bft)
25.11.2015 13:25 2,3 C 3,0 C 78 % 1009,9 hPa 0,0 mm 7,0 km/h (2 Bft) W-SW 247 -1,1 C 9,6 km/h (2 Bft)
25.11.2015 13:30 2,4 C 3,0 C 78 % 1009,9 hPa 0,0 mm 7,0 km/h (2 Bft) W-NW 292 -1,0 C 9,8 km/h (2 Bft)
25.11.2015 13:35 2,4 C 2,9 C 78 % 1010,0 hPa 0,0 mm 7,8 km/h (2 Bft) W-SW 247 -1,0 C 16,8 km/h (3 Bft)
25.11.2015 13:40 2,4 C 2,9 C 78 % 1010,0 hPa 0,0 mm 7,3 km/h (2 Bft) W-SW 247 -1,0 C 10,4 km/h (2 Bft)
25.11.2015 13:45 2,3 C 3,0 C 78 % 1010,0 hPa 0,7 mm 6,5 km/h (2 Bft) S 180 -1,1 C 7,0 km/h (2 Bft)
25.11.2015 13:50 2,3 C 3,3 C 78 % 1010,0 hPa 0,0 mm 4,9 km/h (1 Bft) NW 315 -1,1 C 0,0 km/h (0 Bft)
25.11.2015 13:55 2,3 C 3,4 C 78 % 1009,7 hPa 0,0 mm 4,9 km/h (1 Bft) SW 225 -1,1 C 4,9 km/h (1 Bft)
25.11.2015 14:00 2,4 C 3,8 C 78 % 1009,7 hPa 0,0 mm 4,7 km/h (1 Bft) W-NW 292 -1,0 C 8,0 km/h (2 Bft)
25.11.2015 14:05 2,4 C 3,8 C 78 % 1009,7 hPa 0,0 mm 4,7 km/h (1 Bft) W 270 -1,0 C 6,0 km/h (2 Bft)
25.11.2015 14:10 2,4 C 3,6 C 78 % 1009,7 hPa 0,0 mm 4,9 km/h (1 Bft) W 270 -1,0 C 7,0 km/h (2 Bft)
25.11.2015 14:15 2,3 C 3,6 C 78 % 1009,5 hPa 0,0 mm 4,9 km/h (1 Bft) NW 315 -1,1 C 5,2 km/h (1 Bft)
25.11.2015 14:20 2,4 C 3,2 C 78 % 1009,5 hPa 0,0 mm 6,2 km/h (2 Bft) W-SW 247 -1,0 C 9,3 km/h (2 Bft)
25.11.2015 14:25 2,4 C 3,0 C 78 % 1009,5 hPa 0,0 mm 6,5 km/h (2 Bft) W-NW 292 -1,0 C 4,4 km/h (1 Bft)
25.11.2015 14:30 2,3 C 3,1 C 78 % 1009,5 hPa 0,0 mm 5,2 km/h (1 Bft) W 270 -1,1 C 4,1 km/h (1 Bft)
25.11.2015 14:35 2,3 C 2,9 C 78 % 1009,5 hPa 0,0 mm 5,4 km/h (1 Bft) NW 315 -1,1 C 4,1 km/h (1 Bft)
25.11.2015 14:40 2,3 C 3,0 C 78 % 1009,5 hPa 0,0 mm 4,9 km/h (1 Bft) W-SW 247 -1,1 C 4,1 km/h (1 Bft)
25.11.2015 14:45 2,3 C 2,9 C 78 % 1009,5 hPa 0,0 mm 5,2 km/h (1 Bft) W 270 -1,1 C 17,1 km/h (3 Bft)
25.11.2015 14:50 2,3 C 3,1 C 78 % 1009,5 hPa 0,0 mm 4,7 km/h (1 Bft) SW 225 -1,1 C 4,7 km/h (1 Bft)
25.11.2015 14:55 2,3 C 3,2 C 78 % 1009,5 hPa 0,0 mm 3,9 km/h (1 Bft) W-SW 247 -1,1 C 7,3 km/h (2 Bft)
25.11.2015 15:00 2,3 C 3,2 C 78 % 1009,5 hPa 0,0 mm 3,9 km/h (1 Bft) W-SW 247 -1,1 C 4,7 km/h (1 Bft)
25.11.2015 15:05 2,3 C 3,1 C 78 % 1009,5 hPa 0,0 mm 4,4 km/h (1 Bft) W-SW 247 -1,1 C 3,6 km/h (1 Bft)
25.11.2015 15:10 2,2 C 3,0 C 78 % 1009,5 hPa 0,0 mm 4,7 km/h (1 Bft) SW 225 -1,2 C 4,4 km/h (1 Bft)
25.11.2015 15:15 2,2 C 2,9 C 78 % 1009,3 hPa 0,0 mm 4,4 km/h (1 Bft) W-SW 247 -1,2 C 6,2 km/h (2 Bft)
25.11.2015 15:20 2,2 C 2,9 C 78 % 1009,3 hPa 0,0 mm 3,6 km/h (1 Bft) S 180 -1,2 C 4,4 km/h (1 Bft)
25.11.2015 15:25 2,2 C 2,8 C 78 % 1009,3 hPa 0,0 mm 4,1 km/h (1 Bft) W-NW 292 -1,2 C 5,7 km/h (1 Bft)
25.11.2015 15:30 2,1 C 2,6 C 78 % 1009,3 hPa 0,0 mm 3,6 km/h (1 Bft) W-SW 247 -1,3 C 3,6 km/h (1 Bft)
25.11.2015 15:35 2,1 C 2,6 C 78 % 1009,2 hPa 0,0 mm 2,3 km/h (1 Bft) W-SW 247 -1,3 C 0,0 km/h (0 Bft)
25.11.2015 15:40 2,0 C 2,4 C 78 % 1009,2 hPa 0,0 mm 1,6 km/h (1 Bft) W-NW 292 -1,4 C 4,1 km/h (1 Bft)
25.11.2015 15:45 2,0 C 2,4 C 79 % 1009,2 hPa 0,0 mm 1,6 km/h (1 Bft) W 270 -1,2 C 0,0 km/h (0 Bft)
25.11.2015 15:50 1,9 C 2,1 C 79 % 1009,2 hPa 0,0 mm 0,8 km/h (0 Bft) W-SW 247 -1,3 C 0,0 km/h (0 Bft)
25.11.2015 15:55 1,9 C 1,9 C 79 % 1009,0 hPa 0,0 mm 0,5 km/h (0 Bft) W-NW 292 -1,3 C 0,0 km/h (0 Bft)
25.11.2015 16:00 1,8 C 1,8 C 79 % 1009,0 hPa 0,0 mm 1,0 km/h (0 Bft) W 270 -1,4 C 2,6 km/h (1 Bft)
25.11.2015 16:05 1,8 C 1,8 C 79 % 1009,0 hPa 0,0 mm 1,8 km/h (1 Bft) W 270 -1,4 C 3,9 km/h (1 Bft)
25.11.2015 16:10 1,8 C 1,8 C 79 % 1009,0 hPa 0,0 mm 3,4 km/h (1 Bft) W-SW 247 -1,4 C 10,9 km/h (2 Bft)
25.11.2015 16:15 1,8 C 1,8 C 79 % 1009,0 hPa 0,0 mm 2,8 km/h (1 Bft) W-SW 247 -1,4 C 0,0 km/h (0 Bft)
25.11.2015 16:20 1,7 C 1,6 C 79 % 1009,0 hPa 0,0 mm 2,6 km/h (1 Bft) W-SW 247 -1,5 C 4,1 km/h (1 Bft)
25.11.2015 16:25 1,6 C 1,5 C 79 % 1009,0 hPa 0,0 mm 1,8 km/h (1 Bft) W-SW 247 -1,6 C 0,0 km/h (0 Bft)
25.11.2015 16:30 1,5 C 1,3 C 80 % 1009,0 hPa 0,0 mm 2,3 km/h (1 Bft) W-SW 247 -1,6 C 2,8 km/h (1 Bft)
25.11.2015 16:35 1,5 C 1,3 C 80 % 1009,0 hPa 0,0 mm 2,3 km/h (1 Bft) W-SW 247 -1,6 C 6,0 km/h (2 Bft)
25.11.2015 16:40 1,4 C 1,2 C 80 % 1009,0 hPa 0,0 mm 2,8 km/h (1 Bft) W 270 -1,7 C 5,2 km/h (1 Bft)
25.11.2015 16:45 1,4 C 1,2 C 81 % 1009,0 hPa 0,0 mm 2,8 km/h (1 Bft) S-SW 202 -1,5 C 0,0 km/h (0 Bft)
25.11.2015 16:50 1,3 C 1,1 C 81 % 1009,0 hPa 0,0 mm 2,8 km/h (1 Bft) W-SW 247 -1,6 C 4,4 km/h (1 Bft)
25.11.2015 16:55 1,3 C 1,1 C 81 % 1008,9 hPa 0,0 mm 2,8 km/h (1 Bft) W 270 -1,6 C 0,0 km/h (0 Bft)
25.11.2015 17:00 1,2 C 1,0 C 82 % 1008,9 hPa 0,0 mm 2,6 km/h (1 Bft) W 270 -1,5 C 0,0 km/h (0 Bft)
25.11.2015 17:05 1,2 C 1,0 C 82 % 1008,9 hPa 0,0 mm 1,3 km/h (1 Bft) S-SO 157 -1,5 C 4,1 km/h (1 Bft)
25.11.2015 17:10 1,2 C 1,0 C 82 % 1008,9 hPa 0,0 mm 0,8 km/h (0 Bft) W 270 -1,5 C 0,0 km/h (0 Bft)
25.11.2015 17:15 1,1 C 0,9 C 82 % 1008,8 hPa 0,0 mm 0,8 km/h (0 Bft) W 270 -1,6 C 0,0 km/h (0 Bft)
25.11.2015 17:20 1,1 C 0,8 C 82 % 1008,8 hPa 0,0 mm 0,3 km/h (0 Bft) W 270 -1,6 C 0,0 km/h (0 Bft)
25.11.2015 17:23 1,1 C 0,8 C 82 % 1008,8 hPa 0,0 mm 1,0 km/h (0 Bft) W-SW 247 -1,6 C 3,6 km/h (1 Bft)
25.11.2015 17:25 1,1 C 0,8 C 82 % 1008,8 hPa 0,0 mm 1,0 km/h (0 Bft) W-SW 247 -1,6 C 3,6 km/h (1 Bft)
25.11.2015 17:30 1,1 C 0,8 C 83 % 1008,8 hPa 0,0 mm 2,1 km/h (1 Bft) S-SO 157 -1,5 C 0,0 km/h (0 Bft)
25.11.2015 17:35 1,1 C 0,8 C 83 % 1009,0 hPa 0,0 mm 2,6 km/h (1 Bft) SW 225 -1,5 C 5,4 km/h (1 Bft)
25.11.2015 17:40 1,1 C 0,8 C 83 % 1009,0 hPa 0,0 mm 2,3 km/h (1 Bft) SW 225 -1,5 C 0,0 km/h (0 Bft)
25.11.2015 17:45 1,1 C 0,8 C 83 % 1009,0 hPa 0,0 mm 2,1 km/h (1 Bft) W-SW 247 -1,5 C 0,0 km/h (0 Bft)
25.11.2015 17:50 1,0 C 0,8 C 84 % 1009,0 hPa 0,0 mm 0,3 km/h (0 Bft) SW 225 -1,4 C 3,6 km/h (1 Bft)
25.11.2015 17:55 1,1 C 0,8 C 84 % 1008,8 hPa 0,0 mm 1,6 km/h (1 Bft) W 270 -1,3 C 5,4 km/h (1 Bft)
25.11.2015 18:00 0,9 C 0,7 C 84 % 1008,8 hPa 0,0 mm 2,3 km/h (1 Bft) W-SW 247 -1,5 C 3,9 km/h (1 Bft)
25.11.2015 18:05 0,8 C 0,6 C 84 % 1008,8 hPa 0,0 mm 2,1 km/h (1 Bft) S 180 -1,6 C 3,6 km/h (1 Bft)
25.11.2015 18:10 0,7 C 0,5 C 85 % 1008,8 hPa 0,0 mm 2,8 km/h (1 Bft) S-SW 202 -1,5 C 2,8 km/h (1 Bft)
25.11.2015 18:15 0,7 C 0,5 C 85 % 1008,9 hPa 0,0 mm 3,6 km/h (1 Bft) W-SW 247 -1,5 C 4,4 km/h (1 Bft)
25.11.2015 18:20 0,7 C 0,4 C 85 % 1008,9 hPa 0,0 mm 4,1 km/h (1 Bft) W 270 -1,5 C 9,6 km/h (2 Bft)
25.11.2015 18:25 0,7 C 0,4 C 85 % 1008,9 hPa 0,0 mm 3,6 km/h (1 Bft) W-SW 247 -1,5 C 0,0 km/h (0 Bft)
25.11.2015 18:30 0,7 C 0,4 C 86 % 1008,9 hPa 0,0 mm 2,8 km/h (1 Bft) SW 225 -1,4 C 3,9 km/h (1 Bft)
25.11.2015 18:35 0,7 C 0,5 C 86 % 1008,8 hPa 0,0 mm 3,1 km/h (1 Bft) W-SW 247 -1,4 C 4,7 km/h (1 Bft)
25.11.2015 18:40 0,8 C 0,4 C 86 % 1008,8 hPa 0,0 mm 4,7 km/h (1 Bft) W-SW 247 -1,3 C 11,4 km/h (2 Bft)
25.11.2015 18:45 0,8 C 0,3 C 87 % 1008,8 hPa 0,0 mm 6,0 km/h (2 Bft) W-NW 292 -1,1 C 4,4 km/h (1 Bft)
25.11.2015 18:50 0,8 C 0,3 C 87 % 1008,8 hPa 0,0 mm 5,7 km/h (1 Bft) W-SW 247 -1,1 C 5,2 km/h (1 Bft)
25.11.2015 18:55 0,8 C 0,4 C 87 % 1009,2 hPa 0,0 mm 5,2 km/h (1 Bft) NW 315 -1,1 C 5,4 km/h (1 Bft)
25.11.2015 19:00 0,8 C 0,4 C 87 % 1009,2 hPa 0,0 mm 4,9 km/h (1 Bft) W-SW 247 -1,1 C 7,8 km/h (2 Bft)
25.11.2015 19:05 0,8 C 0,3 C 87 % 1009,2 hPa 0,0 mm 5,4 km/h (1 Bft) W-SW 247 -1,1 C 7,0 km/h (2 Bft)
25.11.2015 19:10 0,8 C 0,2 C 88 % 1009,2 hPa 0,0 mm 6,0 km/h (2 Bft) W 270 -1,0 C 5,4 km/h (1 Bft)
25.11.2015 19:15 0,8 C 0,4 C 88 % 1009,2 hPa 0,0 mm 4,7 km/h (1 Bft) W 270 -1,0 C 4,9 km/h (1 Bft)
25.11.2015 19:20 0,8 C 0,4 C 88 % 1009,2 hPa 0,0 mm 4,4 km/h (1 Bft) W-SW 247 -1,0 C 6,7 km/h (2 Bft)
25.11.2015 19:25 0,8 C 0,3 C 88 % 1009,2 hPa 0,0 mm 5,2 km/h (1 Bft) W-SW 247 -1,0 C 2,8 km/h (1 Bft)
25.11.2015 19:30 0,8 C 0,4 C 88 % 1009,2 hPa 0,0 mm 4,9 km/h (1 Bft) W-SW 247 -1,0 C 3,9 km/h (1 Bft)
25.11.2015 19:35 0,8 C 0,4 C 88 % 1009,3 hPa 0,0 mm 4,7 km/h (1 Bft) W-SW 247 -1,0 C 4,9 km/h (1 Bft)
25.11.2015 19:40 0,8 C 0,4 C 88 % 1009,3 hPa 0,0 mm 4,9 km/h (1 Bft) W-SW 247 -1,0 C 5,7 km/h (1 Bft)
25.11.2015 19:45 0,8 C 0,4 C 88 % 1009,3 hPa 0,0 mm 4,9 km/h (1 Bft) W-SW 247 -1,0 C 3,6 km/h (1 Bft)
25.11.2015 19:50 0,8 C 0,6 C 88 % 1009,3 hPa 0,0 mm 3,9 km/h (1 Bft) W 270 -1,0 C 6,0 km/h (2 Bft)
25.11.2015 19:55 0,8 C 0,6 C 88 % 1009,3 hPa 0,0 mm 2,8 km/h (1 Bft) W-SW 247 -1,0 C 2,6 km/h (1 Bft)
25.11.2015 20:00 0,7 C 0,5 C 88 % 1009,3 hPa 0,0 mm 2,3 km/h (1 Bft) W-SW 247 -1,1 C 4,1 km/h (1 Bft)
25.11.2015 20:05 0,7 C 0,5 C 88 % 1009,3 hPa 0,0 mm 2,6 km/h (1 Bft) SW 225 -1,1 C 5,4 km/h (1 Bft)
25.11.2015 20:10 0,8 C 0,6 C 88 % 1009,3 hPa 0,0 mm 3,4 km/h (1 Bft) W 270 -1,0 C 5,2 km/h (1 Bft)
25.11.2015 20:15 0,8 C 0,6 C 88 % 1009,5 hPa 0,0 mm 3,1 km/h (1 Bft) W 270 -1,0 C 3,4 km/h (1 Bft)
25.11.2015 20:20 0,7 C 0,5 C 88 % 1009,5 hPa 0,0 mm 1,8 km/h (1 Bft) W 270 -1,1 C 0,0 km/h (0 Bft)
25.11.2015 20:25 0,7 C 0,5 C 88 % 1009,5 hPa 0,0 mm 2,3 km/h (1 Bft) W-NW 292 -1,1 C 12,2 km/h (2 Bft)
25.11.2015 20:30 0,7 C 0,5 C 88 % 1009,5 hPa 0,0 mm 3,1 km/h (1 Bft) W-SW 247 -1,1 C 7,0 km/h (2 Bft)
25.11.2015 20:35 0,7 C 0,5 C 88 % 1009,3 hPa 0,0 mm 3,6 km/h (1 Bft) W-SW 247 -1,1 C 5,7 km/h (1 Bft)
25.11.2015 20:40 0,8 C 0,4 C 88 % 1009,3 hPa 0,0 mm 4,7 km/h (1 Bft) W-SW 247 -1,0 C 10,4 km/h (2 Bft)
25.11.2015 20:45 0,8 C 0,4 C 88 % 1009,3 hPa 0,0 mm 4,7 km/h (1 Bft) SW 225 -1,0 C 7,0 km/h (2 Bft)
25.11.2015 20:50 0,7 C 0,3 C 88 % 1009,3 hPa 0,0 mm 4,9 km/h (1 Bft) S 180 -1,1 C 8,5 km/h (2 Bft)
25.11.2015 20:55 0,8 C 0,4 C 88 % 1009,5 hPa 0,0 mm 4,9 km/h (1 Bft) S-SO 157 -1,0 C 4,9 km/h (1 Bft)
25.11.2015 21:00 0,8 C 0,2 C 88 % 1009,5 hPa 0,0 mm 5,7 km/h (1 Bft) W 270 -1,0 C 6,5 km/h (2 Bft)
25.11.2015 21:05 0,8 C 0,1 C 88 % 1009,5 hPa 0,0 mm 6,5 km/h (2 Bft) SW 225 -1,0 C 8,8 km/h (2 Bft)
25.11.2015 21:10 0,8 C 0,1 C 88 % 1009,5 hPa 0,0 mm 7,0 km/h (2 Bft) S-SW 202 -1,0 C 6,2 km/h (2 Bft)
25.11.2015 21:15 0,8 C 0,3 C 88 % 1009,3 hPa 0,0 mm 5,4 km/h (1 Bft) W-SW 247 -1,0 C 2,6 km/h (1 Bft)
25.11.2015 21:20 0,7 C 0,4 C 88 % 1009,3 hPa 0,0 mm 2,3 km/h (1 Bft) W-SW 247 -1,1 C 0,0 km/h (0 Bft)
25.11.2015 21:25 0,6 C 0,3 C 88 % 1009,3 hPa 0,0 mm 1,0 km/h (0 Bft) W 270 -1,2 C 3,9 km/h (1 Bft)
25.11.2015 21:30 0,6 C 0,3 C 88 % 1009,3 hPa 0,0 mm 0,8 km/h (0 Bft) SW 225 -1,2 C 0,0 km/h (0 Bft)
25.11.2015 21:35 0,6 C 0,3 C 88 % 1009,2 hPa 0,0 mm 1,0 km/h (0 Bft) W-SW 247 -1,2 C 2,8 km/h (1 Bft)
25.11.2015 21:40 0,6 C 0,3 C 88 % 1009,2 hPa 0,0 mm 1,3 km/h (1 Bft) SW 225 -1,2 C 4,9 km/h (1 Bft)
25.11.2015 21:45 0,7 C 0,4 C 88 % 1009,2 hPa 0,0 mm 1,8 km/h (1 Bft) W-SW 247 -1,1 C 0,0 km/h (0 Bft)
25.11.2015 21:50 0,7 C 0,4 C 87 % 1009,2 hPa 0,0 mm 1,8 km/h (1 Bft) W-SW 247 -1,2 C 6,2 km/h (2 Bft)
25.11.2015 21:55 0,7 C 0,4 C 87 % 1009,2 hPa 0,0 mm 1,3 km/h (1 Bft) S 180 -1,2 C 0,0 km/h (0 Bft)
25.11.2015 22:00 0,8 C 0,5 C 87 % 1009,2 hPa 0,0 mm 2,3 km/h (1 Bft) W-SW 247 -1,1 C 4,4 km/h (1 Bft)
25.11.2015 22:05 0,8 C 0,5 C 87 % 1009,2 hPa 0,0 mm 1,8 km/h (1 Bft) W-SW 247 -1,1 C 0,0 km/h (0 Bft)
25.11.2015 22:10 0,7 C 0,4 C 87 % 1009,2 hPa 0,0 mm 1,0 km/h (0 Bft) W-SW 247 -1,2 C 0,0 km/h (0 Bft)
25.11.2015 22:15 0,7 C 0,4 C 87 % 1009,3 hPa 0,0 mm 0,5 km/h (0 Bft) W-SW 247 -1,2 C 0,0 km/h (0 Bft)
25.11.2015 22:20 0,6 C 0,3 C 87 % 1009,3 hPa 0,0 mm 1,0 km/h (0 Bft) SW 225 -1,3 C 4,7 km/h (1 Bft)
25.11.2015 22:25 0,6 C 0,3 C 87 % 1009,3 hPa 0,0 mm 1,3 km/h (1 Bft) SW 225 -1,3 C 0,0 km/h (0 Bft)
25.11.2015 22:30 0,5 C 0,2 C 87 % 1009,3 hPa 0,0 mm 1,3 km/h (1 Bft) SW 225 -1,4 C 0,0 km/h (0 Bft)
25.11.2015 22:35 0,5 C 0,2 C 87 % 1009,2 hPa 0,0 mm 0,5 km/h (0 Bft) SW 225 -1,4 C 0,0 km/h (0 Bft)
25.11.2015 22:40 0,4 C 0,2 C 87 % 1009,2 hPa 0,0 mm 0,0 km/h (0 Bft) SW 225 -1,5 C 0,0 km/h (0 Bft)
25.11.2015 22:45 0,3 C 0,1 C 87 % 1009,2 hPa 0,0 mm 0,0 km/h (0 Bft) SW 225 -1,6 C 0,0 km/h (0 Bft)
25.11.2015 22:50 0,3 C 0,1 C 87 % 1009,2 hPa 0,0 mm 0,0 km/h (0 Bft) SW 225 -1,6 C 0,0 km/h (0 Bft)
25.11.2015 22:55 0,3 C 0,1 C 87 % 1009,0 hPa 0,0 mm 0,0 km/h (0 Bft) SW 225 -1,6 C 0,0 km/h (0 Bft)
25.11.2015 23:00 0,3 C 0,1 C 88 % 1009,0 hPa 0,0 mm 0,0 km/h (0 Bft) SW 225 -1,4 C 0,0 km/h (0 Bft)
25.11.2015 23:05 0,3 C 0,1 C 88 % 1009,0 hPa 0,0 mm 0,0 km/h (0 Bft) SW 225 -1,4 C 0,0 km/h (0 Bft)
25.11.2015 23:10 0,3 C 0,1 C 88 % 1009,0 hPa 0,0 mm 0,0 km/h (0 Bft) S-SW 202 -1,4 C 0,0 km/h (0 Bft)
25.11.2015 23:15 0,2 C 0,0 C 88 % 1009,1 hPa 0,0 mm 0,0 km/h (0 Bft) S-SW 202 -1,5 C 0,0 km/h (0 Bft)
25.11.2015 23:20 0,3 C 0,1 C 88 % 1009,1 hPa 0,0 mm 0,0 km/h (0 Bft) S-SW 202 -1,4 C 0,0 km/h (0 Bft)
25.11.2015 23:22 0,3 C 0,1 C 89 % 1009,1 hPa 0,0 mm 0,0 km/h (0 Bft) S-SW 202 -1,3 C 0,0 km/h (0 Bft)
25.11.2015 23:24 0,3 C 0,1 C 89 % 1009,1 hPa 0,0 mm 0,0 km/h (0 Bft) S-SW 202 -1,3 C 0,0 km/h (0 Bft)
25.11.2015 23:25 0,3 C 0,1 C 89 % 1009,1 hPa 0,0 mm 0,0 km/h (0 Bft) S-SW 202 -1,3 C 0,0 km/h (0 Bft)
25.11.2015 23:30 0,3 C 0,1 C 89 % 1009,1 hPa 0,0 mm 0,0 km/h (0 Bft) S-SW 202 -1,3 C 0,0 km/h (0 Bft)
25.11.2015 23:35 0,3 C 0,1 C 89 % 1009,2 hPa 0,0 mm 0,0 km/h (0 Bft) SW 225 -1,3 C 0,0 km/h (0 Bft)
25.11.2015 23:40 0,3 C 0,1 C 89 % 1009,2 hPa 0,0 mm 0,0 km/h (0 Bft) W 270 -1,3 C 0,0 km/h (0 Bft)
25.11.2015 23:45 0,3 C 0,1 C 89 % 1009,2 hPa 0,0 mm 0,0 km/h (0 Bft) W 270 -1,3 C 0,0 km/h (0 Bft)
25.11.2015 23:50 0,3 C 0,1 C 89 % 1009,2 hPa 0,0 mm 0,3 km/h (0 Bft) NW 315 -1,3 C 0,0 km/h (0 Bft)
25.11.2015 23:55 0,3 C 0,1 C 89 % 1009,1 hPa 0,0 mm 0,0 km/h (0 Bft) NW 315 -1,3 C 0,0 km/h (0 Bft)
_ Min-Zeit 00:00 00:00 11:50 18:50 - 23:55 - - 00:00 23:55
Minimum _ -2,9 C -3,2 C 75 % 1008,8 hPa - 0,0 km/h (0 Bft) - - -5,9 C 0,0 km/h (0 Bft)
_ Max-Zeit 11:50 11:15 23:55 00:10 13:45 13:05 - - 12:20 13:00
Maximum _ 3,0 C 6,5 C 89 % 1019,3 hPa 0,7 mm 9,3 km/h
W-NW (2 Bft)
- - -0,8 C 22,3 km/h
W-SW (4 Bft)
Durchschnitt _ 0,2 C 0,5 C 81 % 1012,5 hPa #2,1 mm 2,1 km/h (1 Bft) W-SW - -2,6 C 2,9 km/h (1 Bft)